Aviation Digital Data Service (ADDS)

Output produced by TAFs form (2135 UTC 16 August 2017)
found at http://www.aviationweather.gov/adds/tafs/
 
TAF KDOV 161600Z 1616/1722 33006KT 9999 FEW010 SCT080 QNH2998INS 
     TEMPO 1709/1712 3200 BR BKN015 
     BECMG 1719/1720 12009KT 8000 -SHRA SCT020 BKN030 QNH2996INS TX29/1621Z TN21/1712Z